Decoded Metar for FMEE (ST.-DENIS in REUNION ISLAND) (IATA:RUN) | Meteo·Mobile Aviation Weather
aviador You're here:

FMEE Decoded Metar

ST.-DENIS in REUNION ISLAND
Report Time2019-07-23 02:00:00
UTC Time2019-07-23 02:35:56
Flight Rules vfr VFR
Wind150° at 04 kt
W.Decomp.*RWY 14: 3.5 kt HW 1.9 kt RCW
RWY 12: 2.7 kt HW 3.0 kt RCW
Visibility9999 m
Phenomena:N/A
Clouds:N/A
Expected CloudBase > 800 ft AGL from Temp-Dew spread
CeilingNone
Temp17°C (ISA +2)
Dew Point15°C (88% RH)
QNH1016 hPa
Density Alt463 ft
Elevation82 ft
Report Wrong Elevation
Raw Report
FMEE 230200Z AUTO 15004KT 090V180 CAVOK 17/15 Q1016 TEMPO 4500
SHRA=

Extra information for FMEE:More info

Metar Taf Metar & Taf Last 4 Metars F.Rules Stats Wind Profile Meteogram Temp Stats Airport Information Weather charts Add Link Nearby VenuesMetar ALERT Operation Metar Decoded Social comments